createdAt,value
2018-04-14T00:01:25.049Z,134.13
2018-04-14T00:06:17.305Z,227.17
2018-04-14T00:08:45.660Z,228.07
2018-04-14T00:11:13.147Z,206.27
2018-04-14T00:13:40.817Z,284.03
2018-04-14T00:16:09.551Z,175.43
2018-04-14T00:18:37.412Z,132.77
2018-04-14T00:21:05.415Z,86.20
2018-04-14T00:23:32.879Z,67.60
2018-04-14T00:26:00.325Z,82.87
2018-04-14T00:28:27.804Z,111.40
2018-04-14T00:30:55.264Z,154.10
2018-04-14T00:33:22.707Z,128.63
2018-04-14T00:35:50.174Z,102.50
2018-04-14T00:38:17.617Z,93.70
2018-04-14T00:40:45.780Z,113.70
2018-04-14T00:43:13.243Z,115.37
2018-04-14T00:45:41.268Z,71.40
2018-04-14T00:48:08.727Z,99.20
2018-04-14T00:50:36.200Z,128.47
2018-04-14T00:53:15.445Z,126.67
2018-04-14T00:55:42.897Z,157.80
2018-04-14T00:58:11.351Z,160.60
2018-04-14T01:00:39.420Z,198.80
2018-04-14T01:03:07.448Z,226.90
2018-04-14T01:05:35.340Z,469.03
2018-04-14T01:08:04.115Z,263.67
2018-04-14T01:10:32.335Z,87.20
2018-04-14T01:13:00.742Z,111.17
2018-04-14T01:15:28.223Z,124.90
2018-04-14T01:17:56.449Z,161.43
2018-04-14T01:20:23.907Z,159.77
2018-04-14T01:22:51.689Z,304.37
2018-04-14T01:25:19.149Z,318.70
2018-04-14T01:27:49.056Z,234.47
2018-04-14T01:30:16.509Z,180.17
2018-04-14T01:32:44.535Z,93.60
2018-04-14T01:35:12.750Z,84.53
2018-04-14T01:37:40.217Z,594.20
2018-04-14T01:40:07.679Z,514.10
2018-04-14T01:42:37.528Z,124.80
2018-04-14T01:45:06.143Z,93.97
2018-04-14T01:47:33.608Z,143.10
2018-04-14T01:50:01.060Z,62.77
2018-04-14T01:52:28.545Z,48.17
2018-04-14T01:54:56.113Z,39.23
2018-04-14T01:57:23.804Z,68.63
2018-04-14T01:59:52.032Z,35.93
2018-04-14T02:02:19.488Z,59.77
2018-04-14T02:04:46.965Z,54.67
2018-04-14T02:07:14.427Z,54.00
2018-04-14T02:09:41.878Z,68.20
2018-04-14T02:12:09.351Z,144.57
2018-04-14T02:14:36.800Z,108.80
2018-04-14T02:17:04.264Z,104.80
2018-04-14T02:19:31.988Z,103.50
2018-04-14T02:21:59.435Z,226.00
2018-04-14T02:24:26.896Z,183.17
2018-04-14T02:26:54.365Z,115.00
2018-04-14T02:29:21.836Z,176.83
2018-04-14T02:31:49.832Z,383.43
2018-04-14T02:34:18.056Z,556.53
2018-04-14T02:36:46.072Z,443.07
2018-04-14T02:39:13.916Z,218.60
2018-04-14T02:41:41.363Z,146.67
2018-04-14T02:44:09.220Z,132.30
2018-04-14T02:46:37.288Z,220.03
2018-04-14T02:49:05.170Z,414.47
2018-04-14T02:51:32.628Z,328.50
2018-04-14T02:54:00.094Z,758.83
2018-04-14T02:56:27.567Z,424.43
2018-04-14T02:58:55.015Z,487.70
2018-04-14T03:01:22.484Z,708.30
2018-04-14T03:03:50.382Z,639.10
2018-04-14T03:06:17.848Z,430.73
2018-04-14T03:08:45.706Z,338.17
2018-04-14T03:11:13.171Z,234.97
2018-04-14T03:13:40.631Z,145.23
2018-04-14T03:16:09.159Z,367.30
2018-04-14T03:18:36.613Z,432.43
2018-04-14T03:21:04.065Z,507.80
2018-04-14T03:23:31.524Z,397.57
2018-04-14T03:25:58.980Z,208.90
2018-04-14T03:28:26.956Z,193.13
2018-04-14T03:30:54.403Z,121.80
2018-04-14T03:33:21.861Z,600.77
2018-04-14T03:35:49.850Z,113.03
2018-04-14T03:38:18.064Z,97.80
2018-04-14T03:40:45.520Z,88.60
2018-04-14T03:43:14.124Z,93.37
2018-04-14T03:45:41.580Z,123.07
2018-04-14T03:48:09.039Z,130.53
2018-04-14T03:50:36.492Z,88.50
2018-04-14T03:53:03.956Z,401.17
2018-04-14T03:55:32.168Z,132.87
2018-04-14T03:58:00.393Z,74.37
2018-04-14T04:00:27.847Z,83.60
2018-04-14T04:02:55.315Z,129.87
2018-04-14T04:05:22.772Z,307.00
2018-04-14T04:07:50.229Z,101.63
2018-04-14T04:10:17.686Z,75.00
2018-04-14T04:12:45.142Z,103.20
2018-04-14T04:15:13.358Z,314.40
2018-04-14T04:17:41.588Z,330.57
2018-04-14T04:23:26.948Z,393.03
2018-04-14T04:25:54.399Z,470.77
2018-04-14T04:28:22.185Z,184.20
2018-04-14T04:30:50.039Z,261.07
2018-04-14T04:33:17.494Z,227.67
2018-04-14T04:35:45.736Z,99.63
2018-04-14T04:38:13.753Z,209.93
2018-04-14T04:40:41.210Z,192.57
2018-04-14T04:43:08.668Z,298.47
2018-04-14T04:45:36.119Z,122.97
2018-04-14T04:48:03.813Z,604.17
2018-04-14T04:50:31.655Z,360.17
2018-04-14T04:52:59.117Z,331.50
2018-04-14T04:55:26.590Z,365.37
2018-04-14T04:57:54.048Z,254.03
2018-04-14T05:00:21.499Z,233.23
2018-04-14T05:02:49.240Z,219.30
2018-04-14T05:05:17.243Z,92.00
2018-04-14T05:07:44.736Z,212.90
2018-04-14T05:10:12.967Z,144.20
2018-04-14T05:12:40.584Z,142.13
2018-04-14T05:15:08.076Z,80.97
2018-04-14T05:17:35.524Z,82.13
2018-04-14T05:20:02.981Z,189.90
2018-04-14T05:22:30.440Z,381.70
2018-04-14T05:24:57.924Z,126.23
2018-04-14T05:27:25.673Z,235.77
2018-04-14T05:29:53.650Z,115.83
2018-04-14T05:32:21.137Z,267.80
2018-04-14T05:34:48.849Z,101.53
2018-04-14T05:37:16.330Z,232.93
2018-04-14T05:39:44.778Z,152.00
2018-04-14T05:42:12.231Z,176.83
2018-04-14T05:44:39.732Z,277.37
2018-04-14T05:47:07.608Z,485.97
2018-04-14T05:49:35.077Z,309.33
2018-04-14T05:52:03.907Z,198.67
2018-04-14T05:54:31.480Z,491.10
2018-04-14T05:56:58.940Z,251.83
2018-04-14T05:59:26.401Z,502.47
2018-04-14T06:01:53.864Z,282.53
2018-04-14T06:04:21.314Z,425.70
2018-04-14T06:06:51.401Z,470.90
2018-04-14T06:09:18.860Z,152.03
2018-04-14T06:11:46.315Z,99.17
2018-04-14T06:14:14.204Z,123.07
2018-04-14T06:16:41.668Z,287.30
2018-04-14T06:19:09.130Z,116.60
2018-04-14T06:21:36.576Z,132.53
2018-04-14T06:24:04.052Z,124.23
2018-04-14T06:26:31.527Z,164.37
2018-04-14T06:28:59.252Z,154.47
2018-04-14T06:31:26.793Z,156.40
2018-04-14T06:33:55.215Z,135.03
2018-04-14T06:36:22.676Z,214.63
2018-04-14T06:38:50.152Z,146.60
2018-04-14T06:41:18.388Z,132.20
2018-04-14T06:43:45.919Z,112.47
2018-04-14T06:46:13.391Z,108.73
2018-04-14T06:48:40.840Z,104.00
2018-04-14T06:51:08.298Z,71.83
2018-04-14T06:53:35.748Z,59.90
2018-04-14T06:56:03.204Z,57.50
2018-04-14T06:58:30.681Z,55.13
2018-04-14T07:00:58.578Z,69.23
2018-04-14T07:03:26.033Z,54.50
2018-04-14T07:05:53.489Z,43.57
2018-04-14T07:08:20.951Z,44.00
2018-04-14T07:10:49.182Z,35.70
2018-04-14T07:13:16.654Z,31.93
2018-04-14T07:15:44.221Z,25.73
2018-04-14T07:18:11.684Z,32.70
2018-04-14T07:20:39.162Z,33.33
2018-04-14T07:23:09.174Z,34.30
2018-04-14T07:25:37.804Z,33.37
2018-04-14T07:28:05.259Z,38.57
2018-04-14T07:30:32.723Z,31.20
2018-04-14T07:33:00.311Z,27.03
2018-04-14T07:35:27.981Z,26.67
2018-04-14T07:37:55.429Z,24.53
2018-04-14T07:40:22.891Z,23.27
2018-04-14T07:42:50.359Z,23.43
2018-04-14T07:45:17.836Z,23.47
2018-04-14T07:50:07.780Z,19.93
2018-04-14T07:52:36.047Z,21.17
2018-04-14T07:55:06.131Z,18.97
2018-04-14T07:57:34.354Z,18.12
2018-04-14T08:00:01.813Z,18.17
2018-04-14T08:02:29.328Z,17.67
2018-04-14T08:04:56.784Z,16.20
2018-04-14T08:07:24.322Z,14.60
2018-04-14T08:09:51.789Z,15.95
2018-04-14T08:12:20.613Z,14.63
2018-04-14T08:14:48.085Z,14.87
2018-04-14T08:17:15.535Z,13.93
2018-04-14T08:19:43.011Z,13.20
2018-04-14T08:22:10.487Z,12.55
2018-04-14T08:24:37.967Z,12.60
2018-04-14T08:27:05.449Z,18.33
2018-04-14T08:29:32.912Z,19.40
2018-04-14T08:32:00.525Z,17.05
2018-04-14T08:34:28.752Z,13.32
2018-04-14T08:36:56.753Z,13.00
2018-04-14T08:39:26.107Z,12.63
2018-04-14T08:41:53.558Z,12.82
2018-04-14T08:44:21.072Z,13.68
2018-04-14T08:46:48.965Z,14.10
2018-04-14T08:49:17.203Z,13.25
2018-04-14T08:51:44.660Z,12.45
2018-04-14T08:54:12.639Z,13.38
2018-04-14T08:56:40.105Z,12.02
2018-04-14T08:59:09.084Z,11.88
2018-04-14T09:01:36.550Z,12.45
2018-04-14T09:04:03.999Z,9.93
2018-04-14T09:06:31.468Z,10.88
2018-04-14T09:08:58.940Z,11.77
2018-04-14T09:11:27.537Z,10.85
2018-04-14T09:13:54.992Z,10.20
2018-04-14T09:16:22.457Z,9.93
2018-04-14T09:18:49.901Z,9.00
2018-04-14T09:21:17.376Z,9.77
2018-04-14T09:23:44.830Z,8.15
2018-04-14T09:26:12.372Z,7.60
2018-04-14T09:28:40.753Z,7.62
2018-04-14T09:31:08.603Z,7.57
2018-04-14T09:33:37.020Z,9.07
2018-04-14T09:36:04.472Z,8.82
2018-04-14T09:38:31.930Z,7.97
2018-04-14T09:41:00.776Z,6.95
2018-04-14T09:43:28.232Z,7.68
2018-04-14T09:45:55.689Z,7.43
2018-04-14T09:48:27.377Z,7.10
2018-04-14T09:50:54.866Z,7.62
2018-04-14T09:53:22.334Z,7.10
2018-04-14T09:55:49.789Z,7.80
2018-04-14T09:58:17.240Z,7.72
2018-04-14T10:00:50.512Z,7.40
2018-04-14T10:03:23.966Z,6.68
2018-04-14T10:05:51.495Z,7.05
2018-04-14T10:08:18.948Z,8.38
2018-04-14T10:10:47.182Z,7.20
2018-04-14T10:13:15.821Z,11.57
2018-04-14T10:15:43.270Z,7.60
2018-04-14T10:18:10.732Z,7.50
2018-04-14T10:20:38.211Z,7.12
2018-04-14T10:23:06.443Z,6.82
2018-04-14T10:25:34.028Z,7.40
2018-04-14T10:28:01.473Z,7.60
2018-04-14T10:30:29.106Z,6.85
2018-04-14T10:32:56.736Z,7.85
2018-04-14T10:35:24.945Z,6.82
2018-04-14T10:37:52.533Z,7.65
2018-04-14T10:40:20.005Z,7.95
2018-04-14T10:42:47.748Z,6.75
2018-04-14T10:45:22.187Z,6.68
2018-04-14T10:47:49.688Z,8.07
2018-04-14T10:50:17.174Z,6.68
2018-04-14T10:52:44.665Z,6.35
2018-04-14T10:55:12.522Z,6.43
2018-04-14T10:57:39.980Z,6.70
2018-04-14T11:00:07.437Z,5.70
2018-04-14T11:02:34.937Z,6.82
2018-04-14T11:05:02.389Z,6.32
2018-04-14T11:07:30.864Z,6.37
2018-04-14T11:09:59.091Z,6.20
2018-04-14T11:12:26.543Z,5.90
2018-04-14T11:14:54.539Z,6.80
2018-04-14T11:17:22.057Z,5.80
2018-04-14T11:19:50.269Z,6.12
2018-04-14T11:22:17.804Z,6.10
2018-04-14T11:24:45.289Z,5.90
2018-04-14T11:27:12.745Z,5.62
2018-04-14T11:29:40.641Z,4.72
2018-04-14T11:32:08.865Z,6.85
2018-04-14T11:34:36.440Z,5.93
2018-04-14T11:37:03.939Z,5.53
2018-04-14T11:39:31.399Z,6.37
2018-04-14T11:41:58.872Z,4.78
2018-04-14T11:44:27.995Z,4.47
2018-04-14T11:46:55.541Z,4.55
2018-04-14T11:49:22.997Z,4.30
2018-04-14T11:51:50.457Z,4.53
2018-04-14T11:54:18.314Z,5.18
2018-04-14T11:56:45.784Z,3.83
2018-04-14T11:59:13.771Z,4.03
2018-04-14T12:01:41.225Z,3.60
2018-04-14T12:04:09.497Z,3.47
2018-04-14T12:06:37.053Z,3.37
2018-04-14T12:09:04.537Z,2.87
2018-04-14T12:11:32.521Z,3.50
2018-04-14T12:14:00.761Z,4.03
2018-04-14T12:16:28.840Z,3.78
2018-04-14T12:18:56.292Z,3.15
2018-04-14T12:21:23.763Z,3.30
2018-04-14T12:23:54.079Z,7.15
2018-04-14T12:26:21.536Z,3.30
2018-04-14T12:28:49.003Z,3.80
2018-04-14T12:31:16.461Z,3.15
2018-04-14T12:33:43.908Z,3.80
2018-04-14T12:36:11.355Z,3.67
2018-04-14T12:38:38.825Z,4.37
2018-04-14T12:41:06.276Z,4.35
2018-04-14T12:43:33.733Z,3.20
2018-04-14T12:46:01.175Z,2.62
2018-04-14T12:48:29.194Z,2.30
2018-04-14T12:50:56.640Z,2.15
2018-04-14T12:53:24.894Z,2.60
2018-04-14T12:55:52.340Z,2.70
2018-04-14T12:58:20.234Z,2.60
2018-04-14T13:00:48.453Z,2.22
2018-04-14T13:03:15.904Z,3.40
2018-04-14T13:05:43.399Z,2.20
2018-04-14T13:08:11.093Z,2.25
2018-04-14T13:10:39.316Z,2.35
2018-04-14T13:13:06.786Z,2.33
2018-04-14T13:15:34.255Z,1.90
2018-04-14T13:18:01.704Z,2.55
2018-04-14T13:20:29.199Z,2.40
2018-04-14T13:22:57.472Z,2.12
2018-04-14T13:25:24.999Z,2.72
2018-04-14T13:27:53.064Z,2.80
2018-04-14T13:30:20.507Z,2.40
2018-04-14T13:32:47.979Z,2.33
2018-04-14T13:35:15.423Z,2.50
2018-04-14T13:37:42.887Z,2.83
2018-04-14T13:40:10.356Z,2.40
2018-04-14T13:42:37.913Z,1.90
2018-04-14T13:45:05.376Z,1.73
2018-04-14T13:47:32.917Z,2.40
2018-04-14T13:50:00.383Z,2.42
2018-04-14T13:52:28.036Z,3.17
2018-04-14T13:54:55.633Z,2.62
2018-04-14T13:57:23.045Z,5.47
2018-04-14T13:59:50.505Z,2.53
2018-04-14T14:02:17.959Z,3.78
2018-04-14T14:04:45.441Z,2.70
2018-04-14T14:07:13.564Z,3.60
2018-04-14T14:12:31.593Z,2.95
2018-04-14T14:14:59.828Z,2.58
2018-04-14T14:17:27.290Z,2.20
2018-04-14T14:19:54.742Z,2.03
2018-04-14T14:22:22.979Z,2.20
2018-04-14T14:24:50.473Z,1.85
2018-04-14T14:27:17.936Z,1.70
2018-04-14T14:29:45.492Z,1.62
2018-04-14T14:32:12.953Z,1.83
2018-04-14T14:34:41.173Z,2.45
2018-04-14T14:37:08.620Z,1.62
2018-04-14T14:39:36.179Z,1.73
2018-04-14T14:42:04.403Z,1.45
2018-04-14T14:44:31.859Z,1.92
2018-04-14T14:46:59.391Z,1.70
2018-04-14T14:49:27.299Z,1.52
2018-04-14T14:51:54.751Z,4.00
2018-04-14T14:54:22.212Z,1.37
2018-04-14T14:56:50.096Z,3.35
2018-04-14T14:59:17.543Z,1.70
2018-04-14T15:01:46.976Z,1.83
2018-04-14T15:04:14.432Z,3.12
2018-04-14T15:06:42.293Z,1.60
2018-04-14T15:09:10.924Z,2.05
2018-04-14T15:11:38.388Z,2.22
2018-04-14T15:14:06.347Z,1.12
2018-04-14T15:16:33.796Z,1.17
2018-04-14T15:19:01.252Z,1.25
2018-04-14T15:21:28.831Z,1.17
2018-04-14T15:23:56.680Z,1.35
2018-04-14T15:26:24.117Z,2.03
2018-04-14T15:28:51.569Z,1.27
2018-04-14T15:31:19.023Z,1.50
2018-04-14T15:33:46.532Z,2.03
2018-04-14T15:36:14.556Z,2.00
2018-04-14T15:38:42.057Z,5.18
2018-04-14T15:41:09.552Z,1.40
2018-04-14T15:43:37.767Z,1.37
2018-04-14T15:46:05.243Z,1.70
2018-04-14T15:48:32.799Z,4.32
2018-04-14T15:51:00.257Z,2.30
2018-04-14T15:53:27.708Z,1.92
2018-04-14T15:55:55.187Z,1.37
2018-04-14T15:58:22.635Z,1.25
2018-04-14T16:00:50.188Z,1.67
2018-04-14T16:03:17.660Z,2.08
2018-04-14T16:05:45.311Z,1.12
2018-04-14T16:08:13.237Z,1.20
2018-04-14T16:10:40.687Z,1.25
2018-04-14T16:13:08.142Z,2.50
2018-04-14T16:15:35.603Z,3.35
2018-04-14T16:18:03.052Z,2.37
2018-04-14T16:20:30.568Z,2.00
2018-04-14T16:22:58.120Z,1.20
2018-04-14T16:25:25.604Z,0.95
2018-04-14T16:27:53.657Z,1.45
2018-04-14T16:30:21.116Z,2.97
2018-04-14T16:32:48.668Z,1.67
2018-04-14T16:35:16.235Z,1.30
2018-04-14T16:37:44.461Z,1.17
2018-04-14T16:40:12.320Z,1.48
2018-04-14T16:42:40.648Z,4.03
2018-04-14T16:45:08.099Z,3.90
2018-04-14T16:47:35.573Z,2.53
2018-04-14T16:50:03.571Z,2.17
2018-04-14T16:52:31.793Z,1.52
2018-04-14T16:54:59.374Z,3.97
2018-04-14T16:57:27.964Z,2.20
2018-04-14T16:59:55.414Z,1.58
2018-04-14T17:02:22.873Z,2.05
2018-04-14T17:04:51.210Z,1.50
2018-04-14T17:07:18.696Z,1.27
2018-04-14T17:09:46.144Z,2.25
2018-04-14T17:12:13.616Z,1.30
2018-04-14T17:14:41.063Z,1.77
2018-04-14T17:17:08.947Z,8.88
2018-04-14T17:19:36.400Z,1.58
2018-04-14T17:22:03.944Z,3.83
2018-04-14T17:24:33.920Z,1.52
2018-04-14T17:27:01.364Z,1.77
2018-04-14T17:29:29.585Z,2.42
2018-04-14T17:31:58.331Z,2.25
2018-04-14T17:34:25.846Z,5.97
2018-04-14T17:36:53.305Z,2.03
2018-04-14T17:39:20.783Z,2.80
2018-04-14T17:41:49.008Z,2.00
2018-04-14T17:44:16.471Z,1.20
2018-04-14T17:46:44.277Z,2.10
2018-04-14T17:49:12.533Z,1.53
2018-04-14T17:51:39.976Z,1.90
2018-04-14T17:54:07.932Z,1.80
2018-04-14T17:56:35.380Z,1.37
2018-04-14T17:59:02.964Z,2.10
2018-04-14T18:01:32.144Z,2.47
2018-04-14T18:03:59.592Z,5.03
2018-04-14T18:06:27.056Z,2.97
2018-04-14T18:08:54.508Z,3.70
2018-04-14T18:11:21.956Z,3.80
2018-04-14T18:13:49.955Z,3.70
2018-04-14T18:16:17.404Z,2.03
2018-04-14T18:18:44.864Z,2.00
2018-04-14T18:21:12.332Z,2.07
2018-04-14T18:23:39.786Z,2.30
2018-04-14T18:26:07.236Z,2.33
2018-04-14T18:28:34.692Z,1.97
2018-04-14T18:31:02.159Z,5.00
2018-04-14T18:33:29.629Z,2.00
2018-04-14T18:35:57.176Z,3.00
2018-04-14T18:38:24.749Z,4.90
2018-04-14T18:40:52.204Z,6.37
2018-04-14T18:43:20.064Z,3.23
2018-04-14T18:45:47.523Z,2.97
2018-04-14T18:48:15.079Z,5.37
2018-04-14T18:50:42.632Z,2.70
2018-04-14T18:53:10.092Z,3.40
2018-04-14T18:55:37.552Z,6.53
2018-04-14T18:58:05.280Z,7.67
2018-04-14T19:00:32.773Z,7.87
2018-04-14T19:03:00.232Z,8.90
2018-04-14T19:05:28.151Z,5.87
2018-04-14T19:07:55.657Z,6.93
2018-04-14T19:10:23.224Z,8.30
2018-04-14T19:12:50.727Z,6.47
2018-04-14T19:15:18.751Z,7.87
2018-04-14T19:17:46.207Z,6.90
2018-04-14T19:20:14.204Z,6.20
2018-04-14T19:22:42.953Z,7.57
2018-04-14T19:25:10.940Z,7.83
2018-04-14T19:27:38.823Z,6.33
2018-04-14T19:30:07.344Z,5.50
2018-04-14T19:32:34.839Z,9.90
2018-04-14T19:35:02.296Z,5.83
2018-04-14T19:37:30.244Z,4.50
2018-04-14T19:39:57.705Z,5.27
2018-04-14T19:42:25.184Z,5.20
2018-04-14T19:44:52.744Z,8.10
2018-04-14T19:47:20.196Z,10.20
2018-04-14T19:49:47.789Z,9.63
2018-04-14T19:52:16.028Z,8.57
2018-04-14T19:54:43.579Z,8.30
2018-04-14T19:57:11.057Z,5.90
2018-04-14T19:59:38.512Z,8.00
2018-04-14T20:02:06.023Z,6.43
2018-04-14T20:04:33.529Z,4.83
2018-04-14T20:07:00.998Z,7.50
2018-04-14T20:09:28.528Z,6.50
2018-04-14T20:11:55.984Z,5.27
2018-04-14T20:14:23.511Z,7.73
2018-04-14T20:16:50.968Z,9.07
2018-04-14T20:19:18.464Z,14.87
2018-04-14T20:21:46.016Z,11.23
2018-04-14T20:24:13.513Z,11.83
2018-04-14T20:26:41.732Z,7.70
2018-04-14T20:29:09.272Z,6.67
2018-04-14T20:31:37.297Z,7.70
2018-04-14T20:34:05.166Z,6.37
2018-04-14T20:36:32.704Z,7.90
2018-04-14T20:39:00.168Z,6.30
2018-04-14T20:41:27.632Z,6.77
2018-04-14T20:43:55.695Z,8.13
2018-04-14T20:46:23.153Z,6.77
2018-04-14T20:48:50.624Z,7.90
2018-04-14T20:51:18.881Z,7.77
2018-04-14T20:53:46.367Z,7.70
2018-04-14T20:56:14.922Z,16.97
2018-04-14T20:58:42.380Z,10.50
2018-04-14T21:01:10.543Z,10.37
2018-04-14T21:03:38.000Z,10.77
2018-04-14T21:06:05.455Z,13.13
2018-04-14T21:08:33.020Z,13.57
2018-04-14T21:11:00.879Z,16.70
2018-04-14T21:13:28.696Z,10.77
2018-04-14T21:15:56.899Z,10.80
2018-04-14T21:18:24.348Z,10.97
2018-04-14T21:20:53.493Z,7.27
2018-04-14T21:23:21.035Z,7.00
2018-04-14T21:25:48.509Z,6.13
2018-04-14T21:28:15.972Z,5.37
2018-04-14T21:30:43.852Z,5.87
2018-04-14T21:33:12.079Z,7.67
2018-04-14T21:35:39.533Z,4.77
2018-04-14T21:38:07.073Z,5.07
2018-04-14T21:40:34.988Z,5.50
2018-04-14T21:43:02.435Z,6.33
2018-04-14T21:45:32.412Z,5.67
2018-04-14T21:47:59.849Z,5.93
2018-04-14T21:50:28.175Z,5.47
2018-04-14T21:52:55.632Z,7.23
2018-04-14T21:55:23.663Z,5.47
2018-04-14T21:57:51.117Z,4.57
2018-04-14T22:00:18.560Z,6.07
2018-04-14T22:02:47.044Z,5.50
2018-04-14T22:05:15.248Z,5.13
2018-04-14T22:07:43.004Z,6.07
2018-04-14T22:10:10.444Z,6.50
2018-04-14T22:12:37.968Z,7.13
2018-04-14T22:15:06.109Z,6.57
2018-04-14T22:17:33.547Z,6.80
2018-04-14T22:20:01.000Z,8.13
2018-04-14T22:22:29.294Z,7.13
2018-04-14T22:24:57.048Z,7.07
2018-04-14T22:27:24.542Z,6.77
2018-04-14T22:29:52.452Z,7.93
2018-04-14T22:32:19.960Z,7.43
2018-04-14T22:34:47.636Z,8.63
2018-04-14T22:37:15.096Z,5.50
2018-04-14T22:39:42.541Z,5.00
2018-04-14T22:42:10.095Z,7.20
2018-04-14T22:44:37.776Z,6.03
2018-04-14T22:47:05.236Z,6.47
2018-04-14T22:49:32.680Z,8.73
2018-04-14T22:52:00.134Z,6.33
2018-04-14T22:54:27.912Z,5.40
2018-04-14T22:56:55.971Z,6.43
2018-04-14T22:59:23.745Z,5.60
2018-04-14T23:01:51.738Z,6.33
2018-04-14T23:04:19.979Z,6.03
2018-04-14T23:06:47.991Z,5.67
2018-04-14T23:09:15.443Z,7.20
2018-04-14T23:11:43.659Z,6.83
2018-04-14T23:14:11.529Z,7.60
2018-04-14T23:16:38.984Z,5.83
2018-04-14T23:19:06.555Z,6.90
2018-04-14T23:21:34.432Z,5.93
2018-04-14T23:24:01.885Z,10.20
2018-04-14T23:26:29.341Z,6.70
2018-04-14T23:28:56.908Z,6.43
2018-04-14T23:31:25.891Z,9.97
2018-04-14T23:33:53.848Z,10.00
2018-04-14T23:36:21.294Z,11.60
2018-04-14T23:38:48.769Z,11.30
2018-04-14T23:41:16.803Z,7.23
2018-04-14T23:43:44.293Z,8.40
2018-04-14T23:46:11.856Z,8.40
2018-04-14T23:48:39.828Z,11.80
2018-04-14T23:51:09.584Z,8.97
2018-04-14T23:53:37.039Z,8.23
2018-04-14T23:56:04.509Z,7.93
2018-04-14T23:58:31.974Z,6.50
